sensor_id;sensor_type;location;lat;lon;timestamp;temperature;humidity
13998;DHT22;7074;51.508;7.018;2023-03-01T00:01:38;1.80;99.90
13998;DHT22;7074;51.508;7.018;2023-03-01T00:04:07;1.80;99.90
13998;DHT22;7074;51.508;7.018;2023-03-01T00:06:34;1.80;99.90
13998;DHT22;7074;51.508;7.018;2023-03-01T00:09:02;1.80;99.90
13998;DHT22;7074;51.508;7.018;2023-03-01T00:11:31;1.80;99.90
13998;DHT22;7074;51.508;7.018;2023-03-01T00:14:00;1.70;99.90
13998;DHT22;7074;51.508;7.018;2023-03-01T00:16:29;1.60;99.90
13998;DHT22;7074;51.508;7.018;2023-03-01T00:18:57;1.60;99.90
13998;DHT22;7074;51.508;7.018;2023-03-01T00:21:27;1.60;99.90
13998;DHT22;7074;51.508;7.018;2023-03-01T00:23:54;1.60;99.90
13998;DHT22;7074;51.508;7.018;2023-03-01T00:26:23;1.60;99.90
13998;DHT22;7074;51.508;7.018;2023-03-01T00:28:51;1.50;99.90
13998;DHT22;7074;51.508;7.018;2023-03-01T00:31:20;1.50;99.90
13998;DHT22;7074;51.508;7.018;2023-03-01T00:33:47;1.50;99.90
13998;DHT22;7074;51.508;7.018;2023-03-01T00:36:16;1.40;99.90
13998;DHT22;7074;51.508;7.018;2023-03-01T00:38:45;1.30;99.90
13998;DHT22;7074;51.508;7.018;2023-03-01T00:41:15;1.40;99.90
13998;DHT22;7074;51.508;7.018;2023-03-01T00:43:43;1.30;99.90
13998;DHT22;7074;51.508;7.018;2023-03-01T00:46:12;1.30;99.90
13998;DHT22;7074;51.508;7.018;2023-03-01T00:48:40;1.30;99.90
13998;DHT22;7074;51.508;7.018;2023-03-01T00:51:10;1.40;99.90
13998;DHT22;7074;51.508;7.018;2023-03-01T00:53:38;1.30;99.90
13998;DHT22;7074;51.508;7.018;2023-03-01T00:56:08;1.30;99.90
13998;DHT22;7074;51.508;7.018;2023-03-01T00:58:36;1.30;99.90
13998;DHT22;7074;51.508;7.018;2023-03-01T01:01:08;1.30;99.90
13998;DHT22;7074;51.508;7.018;2023-03-01T01:03:47;1.30;99.90
13998;DHT22;7074;51.508;7.018;2023-03-01T01:06:16;1.20;99.90
13998;DHT22;7074;51.508;7.018;2023-03-01T01:08:43;1.20;99.90
13998;DHT22;7074;51.508;7.018;2023-03-01T01:11:13;1.20;99.90
13998;DHT22;7074;51.508;7.018;2023-03-01T01:13:41;1.20;99.90
13998;DHT22;7074;51.508;7.018;2023-03-01T01:16:08;1.10;99.90
13998;DHT22;7074;51.508;7.018;2023-03-01T01:18:36;1.20;99.90
13998;DHT22;7074;51.508;7.018;2023-03-01T01:21:05;1.10;99.90
13998;DHT22;7074;51.508;7.018;2023-03-01T01:23:33;1.10;99.90
13998;DHT22;7074;51.508;7.018;2023-03-01T01:26:05;1.10;99.90
13998;DHT22;7074;51.508;7.018;2023-03-01T01:28:34;1.00;99.90
13998;DHT22;7074;51.508;7.018;2023-03-01T01:31:01;1.10;99.90
13998;DHT22;7074;51.508;7.018;2023-03-01T01:33:28;1.10;99.90
13998;DHT22;7074;51.508;7.018;2023-03-01T01:35:55;1.00;99.90
13998;DHT22;7074;51.508;7.018;2023-03-01T01:38:23;0.90;99.90
13998;DHT22;7074;51.508;7.018;2023-03-01T01:40:51;0.90;99.90
13998;DHT22;7074;51.508;7.018;2023-03-01T01:43:22;0.80;99.90
13998;DHT22;7074;51.508;7.018;2023-03-01T01:45:51;0.80;99.90
13998;DHT22;7074;51.508;7.018;2023-03-01T01:48:22;0.80;99.90
13998;DHT22;7074;51.508;7.018;2023-03-01T01:50:56;0.80;99.90
13998;DHT22;7074;51.508;7.018;2023-03-01T01:53:25;0.70;99.90
13998;DHT22;7074;51.508;7.018;2023-03-01T01:55:58;0.60;99.90
13998;DHT22;7074;51.508;7.018;2023-03-01T01:58:29;0.60;99.90
13998;DHT22;7074;51.508;7.018;2023-03-01T02:00:58;0.60;99.90
13998;DHT22;7074;51.508;7.018;2023-03-01T02:03:31;0.60;99.90
13998;DHT22;7074;51.508;7.018;2023-03-01T02:06:06;0.50;99.90
13998;DHT22;7074;51.508;7.018;2023-03-01T02:08:36;0.60;99.90
13998;DHT22;7074;51.508;7.018;2023-03-01T02:11:04;0.50;99.90
13998;DHT22;7074;51.508;7.018;2023-03-01T02:13:33;0.60;99.90
13998;DHT22;7074;51.508;7.018;2023-03-01T02:16:04;0.60;99.90
13998;DHT22;7074;51.508;7.018;2023-03-01T02:18:32;0.50;99.90
13998;DHT22;7074;51.508;7.018;2023-03-01T02:21:08;0.50;99.90
13998;DHT22;7074;51.508;7.018;2023-03-01T02:23:37;0.30;99.90
13998;DHT22;7074;51.508;7.018;2023-03-01T02:26:09;0.30;99.90
13998;DHT22;7074;51.508;7.018;2023-03-01T02:28:42;0.40;99.90
13998;DHT22;7074;51.508;7.018;2023-03-01T02:31:14;0.30;99.90
13998;DHT22;7074;51.508;7.018;2023-03-01T02:34:00;0.40;99.90
13998;DHT22;7074;51.508;7.018;2023-03-01T02:36:34;0.40;99.90
13998;DHT22;7074;51.508;7.018;2023-03-01T02:39:05;0.30;99.90
13998;DHT22;7074;51.508;7.018;2023-03-01T02:41:43;0.30;99.90
13998;DHT22;7074;51.508;7.018;2023-03-01T02:44:12;0.40;99.90
13998;DHT22;7074;51.508;7.018;2023-03-01T02:46:44;0.40;99.90
13998;DHT22;7074;51.508;7.018;2023-03-01T02:49:20;0.40;99.90
13998;DHT22;7074;51.508;7.018;2023-03-01T02:54:42;0.30;99.90
13998;DHT22;7074;51.508;7.018;2023-03-01T02:57:12;0.20;99.90
13998;DHT22;7074;51.508;7.018;2023-03-01T02:59:42;0.20;99.90
13998;DHT22;7074;51.508;7.018;2023-03-01T03:02:19;0.20;99.90
13998;DHT22;7074;51.508;7.018;2023-03-01T03:05:08;0.20;99.90
13998;DHT22;7074;51.508;7.018;2023-03-01T03:07:38;0.20;99.90
13998;DHT22;7074;51.508;7.018;2023-03-01T03:10:08;0.10;99.90
13998;DHT22;7074;51.508;7.018;2023-03-01T03:12:37;0.10;99.90
13998;DHT22;7074;51.508;7.018;2023-03-01T03:15:08;0.10;99.90
13998;DHT22;7074;51.508;7.018;2023-03-01T03:17:40;0.10;99.90
13998;DHT22;7074;51.508;7.018;2023-03-01T03:20:09;0.10;99.90
13998;DHT22;7074;51.508;7.018;2023-03-01T03:22:38;0.20;99.90
13998;DHT22;7074;51.508;7.018;2023-03-01T03:25:06;0.10;99.90
13998;DHT22;7074;51.508;7.018;2023-03-01T03:27:36;0.10;99.90
13998;DHT22;7074;51.508;7.018;2023-03-01T03:30:05;0.00;99.90
13998;DHT22;7074;51.508;7.018;2023-03-01T03:32:36;0.10;99.90
13998;DHT22;7074;51.508;7.018;2023-03-01T03:35:05;0.10;99.90
13998;DHT22;7074;51.508;7.018;2023-03-01T03:37:36;0.10;99.90
13998;DHT22;7074;51.508;7.018;2023-03-01T03:40:21;0.00;99.90
13998;DHT22;7074;51.508;7.018;2023-03-01T03:42:48;0.00;99.90
13998;DHT22;7074;51.508;7.018;2023-03-01T03:45:15;0.00;99.90
13998;DHT22;7074;51.508;7.018;2023-03-01T03:47:44;0.00;99.90
13998;DHT22;7074;51.508;7.018;2023-03-01T03:50:14;0.00;99.90
13998;DHT22;7074;51.508;7.018;2023-03-01T03:52:41;0.00;99.90
13998;DHT22;7074;51.508;7.018;2023-03-01T03:55:11;0.00;99.90
13998;DHT22;7074;51.508;7.018;2023-03-01T03:57:40;0.00;99.90
13998;DHT22;7074;51.508;7.018;2023-03-01T04:00:10;-0.10;99.90
13998;DHT22;7074;51.508;7.018;2023-03-01T04:02:39;-0.20;99.90
13998;DHT22;7074;51.508;7.018;2023-03-01T04:05:09;-0.20;99.90
13998;DHT22;7074;51.508;7.018;2023-03-01T04:07:37;-0.10;99.90
13998;DHT22;7074;51.508;7.018;2023-03-01T04:10:07;-0.20;99.90
13998;DHT22;7074;51.508;7.018;2023-03-01T04:12:36;-0.30;99.90
13998;DHT22;7074;51.508;7.018;2023-03-01T04:15:05;-0.20;99.90
13998;DHT22;7074;51.508;7.018;2023-03-01T04:17:39;-0.20;99.90
13998;DHT22;7074;51.508;7.018;2023-03-01T04:20:10;-0.20;99.90
13998;DHT22;7074;51.508;7.018;2023-03-01T04:22:38;-0.30;99.90
13998;DHT22;7074;51.508;7.018;2023-03-01T04:25:07;-0.30;99.90
13998;DHT22;7074;51.508;7.018;2023-03-01T04:27:40;-0.30;99.90
13998;DHT22;7074;51.508;7.018;2023-03-01T04:30:08;-0.40;99.90
13998;DHT22;7074;51.508;7.018;2023-03-01T04:32:36;-0.40;99.90
13998;DHT22;7074;51.508;7.018;2023-03-01T04:35:03;-0.30;99.90
13998;DHT22;7074;51.508;7.018;2023-03-01T04:37:33;-0.30;99.90
13998;DHT22;7074;51.508;7.018;2023-03-01T04:40:00;-0.40;99.90
13998;DHT22;7074;51.508;7.018;2023-03-01T04:42:33;-0.40;99.90
13998;DHT22;7074;51.508;7.018;2023-03-01T04:45:01;-0.40;99.90
13998;DHT22;7074;51.508;7.018;2023-03-01T04:47:28;-0.60;99.90
13998;DHT22;7074;51.508;7.018;2023-03-01T04:49:55;-0.60;99.90
13998;DHT22;7074;51.508;7.018;2023-03-01T04:52:22;-0.60;99.90
13998;DHT22;7074;51.508;7.018;2023-03-01T04:54:52;-0.50;99.90
13998;DHT22;7074;51.508;7.018;2023-03-01T04:57:19;-0.50;99.90
13998;DHT22;7074;51.508;7.018;2023-03-01T04:59:46;-0.50;99.90
13998;DHT22;7074;51.508;7.018;2023-03-01T05:02:14;-0.60;99.90
13998;DHT22;7074;51.508;7.018;2023-03-01T05:04:41;-0.60;99.90
13998;DHT22;7074;51.508;7.018;2023-03-01T05:07:08;-0.60;99.90
13998;DHT22;7074;51.508;7.018;2023-03-01T05:09:36;-0.60;99.90
13998;DHT22;7074;51.508;7.018;2023-03-01T05:12:05;-0.60;99.90
13998;DHT22;7074;51.508;7.018;2023-03-01T05:14:33;-0.50;99.90
13998;DHT22;7074;51.508;7.018;2023-03-01T05:17:00;-0.50;99.90
13998;DHT22;7074;51.508;7.018;2023-03-01T05:19:29;-0.60;99.90
13998;DHT22;7074;51.508;7.018;2023-03-01T05:21:57;-0.60;99.90
13998;DHT22;7074;51.508;7.018;2023-03-01T05:24:31;-0.60;99.90
13998;DHT22;7074;51.508;7.018;2023-03-01T05:26:59;-0.70;99.90
13998;DHT22;7074;51.508;7.018;2023-03-01T05:29:30;-0.70;99.90
13998;DHT22;7074;51.508;7.018;2023-03-01T05:32:03;-0.60;99.90
13998;DHT22;7074;51.508;7.018;2023-03-01T05:34:33;-0.60;99.90
13998;DHT22;7074;51.508;7.018;2023-03-01T05:37:01;-0.60;99.90
13998;DHT22;7074;51.508;7.018;2023-03-01T05:39:29;-0.70;99.90
13998;DHT22;7074;51.508;7.018;2023-03-01T05:41:58;-0.70;99.90
13998;DHT22;7074;51.508;7.018;2023-03-01T05:44:29;-0.70;99.90
13998;DHT22;7074;51.508;7.018;2023-03-01T05:46:56;-0.70;99.90
13998;DHT22;7074;51.508;7.018;2023-03-01T05:49:23;-0.70;99.90
13998;DHT22;7074;51.508;7.018;2023-03-01T05:51:52;-0.80;99.90
13998;DHT22;7074;51.508;7.018;2023-03-01T05:54:20;-0.70;99.90
13998;DHT22;7074;51.508;7.018;2023-03-01T05:56:48;-0.70;99.90
13998;DHT22;7074;51.508;7.018;2023-03-01T05:59:16;-0.70;99.90
13998;DHT22;7074;51.508;7.018;2023-03-01T06:01:45;-0.70;99.90
13998;DHT22;7074;51.508;7.018;2023-03-01T06:04:12;-0.80;99.90
13998;DHT22;7074;51.508;7.018;2023-03-01T06:06:39;-0.80;99.90
13998;DHT22;7074;51.508;7.018;2023-03-01T06:09:07;-0.80;99.90
13998;DHT22;7074;51.508;7.018;2023-03-01T06:11:36;-0.70;99.90
13998;DHT22;7074;51.508;7.018;2023-03-01T06:14:03;-0.70;99.90
13998;DHT22;7074;51.508;7.018;2023-03-01T06:16:32;-0.60;99.90
13998;DHT22;7074;51.508;7.018;2023-03-01T06:19:00;-0.60;99.90
13998;DHT22;7074;51.508;7.018;2023-03-01T06:21:28;-0.70;99.90
13998;DHT22;7074;51.508;7.018;2023-03-01T06:23:55;-0.70;99.90
13998;DHT22;7074;51.508;7.018;2023-03-01T06:26:22;-0.60;99.90
13998;DHT22;7074;51.508;7.018;2023-03-01T06:28:50;-0.50;99.90
13998;DHT22;7074;51.508;7.018;2023-03-01T06:31:17;-0.40;99.90
13998;DHT22;7074;51.508;7.018;2023-03-01T06:33:44;-0.40;99.90
13998;DHT22;7074;51.508;7.018;2023-03-01T06:36:13;-0.40;99.90
13998;DHT22;7074;51.508;7.018;2023-03-01T06:38:44;-0.40;99.90
13998;DHT22;7074;51.508;7.018;2023-03-01T06:41:11;-0.30;99.90
13998;DHT22;7074;51.508;7.018;2023-03-01T06:43:39;-0.20;99.90
13998;DHT22;7074;51.508;7.018;2023-03-01T06:46:06;-0.20;99.90
13998;DHT22;7074;51.508;7.018;2023-03-01T06:48:34;-0.10;99.90
13998;DHT22;7074;51.508;7.018;2023-03-01T06:51:01;-0.10;99.90
13998;DHT22;7074;51.508;7.018;2023-03-01T06:53:30;-0.10;99.90
13998;DHT22;7074;51.508;7.018;2023-03-01T06:55:58;0.00;99.90
13998;DHT22;7074;51.508;7.018;2023-03-01T06:58:26;0.00;99.90
13998;DHT22;7074;51.508;7.018;2023-03-01T07:00:53;0.00;99.90
13998;DHT22;7074;51.508;7.018;2023-03-01T07:03:20;0.00;99.90
13998;DHT22;7074;51.508;7.018;2023-03-01T07:05:48;0.10;99.90
13998;DHT22;7074;51.508;7.018;2023-03-01T07:08:18;0.20;99.90
13998;DHT22;7074;51.508;7.018;2023-03-01T07:10:46;0.30;99.90
13998;DHT22;7074;51.508;7.018;2023-03-01T07:13:14;0.40;99.90
13998;DHT22;7074;51.508;7.018;2023-03-01T07:15:41;0.50;99.90
13998;DHT22;7074;51.508;7.018;2023-03-01T07:18:08;0.60;99.90
13998;DHT22;7074;51.508;7.018;2023-03-01T07:20:35;0.60;99.90
13998;DHT22;7074;51.508;7.018;2023-03-01T07:23:03;0.60;99.90
13998;DHT22;7074;51.508;7.018;2023-03-01T07:25:32;0.70;99.90
13998;DHT22;7074;51.508;7.018;2023-03-01T07:28:01;0.80;99.90
13998;DHT22;7074;51.508;7.018;2023-03-01T07:30:28;0.90;99.90
13998;DHT22;7074;51.508;7.018;2023-03-01T07:32:57;0.90;99.90
13998;DHT22;7074;51.508;7.018;2023-03-01T07:35:26;0.90;99.90
13998;DHT22;7074;51.508;7.018;2023-03-01T07:37:53;0.90;99.90
13998;DHT22;7074;51.508;7.018;2023-03-01T07:40:21;1.00;99.90
13998;DHT22;7074;51.508;7.018;2023-03-01T07:42:48;1.10;99.90
13998;DHT22;7074;51.508;7.018;2023-03-01T07:45:17;1.10;99.90
13998;DHT22;7074;51.508;7.018;2023-03-01T07:47:44;1.30;99.90
13998;DHT22;7074;51.508;7.018;2023-03-01T07:50:12;1.30;99.90
13998;DHT22;7074;51.508;7.018;2023-03-01T07:52:39;1.40;99.90
13998;DHT22;7074;51.508;7.018;2023-03-01T07:55:07;1.50;99.90
13998;DHT22;7074;51.508;7.018;2023-03-01T07:57:35;1.50;99.90
13998;DHT22;7074;51.508;7.018;2023-03-01T08:00:04;1.60;99.90
13998;DHT22;7074;51.508;7.018;2023-03-01T08:02:39;1.70;99.90
13998;DHT22;7074;51.508;7.018;2023-03-01T08:05:08;1.70;99.90
13998;DHT22;7074;51.508;7.018;2023-03-01T08:07:35;1.90;99.90
13998;DHT22;7074;51.508;7.018;2023-03-01T08:10:03;1.80;99.90
13998;DHT22;7074;51.508;7.018;2023-03-01T08:12:31;1.90;99.90
13998;DHT22;7074;51.508;7.018;2023-03-01T08:14:58;1.90;99.90
13998;DHT22;7074;51.508;7.018;2023-03-01T08:17:26;1.90;99.90
13998;DHT22;7074;51.508;7.018;2023-03-01T08:19:55;1.80;99.90
13998;DHT22;7074;51.508;7.018;2023-03-01T08:22:22;2.00;99.90
13998;DHT22;7074;51.508;7.018;2023-03-01T08:24:50;2.20;99.90
13998;DHT22;7074;51.508;7.018;2023-03-01T08:27:17;2.30;99.90
13998;DHT22;7074;51.508;7.018;2023-03-01T08:29:44;2.30;99.90
13998;DHT22;7074;51.508;7.018;2023-03-01T08:32:12;2.30;99.90
13998;DHT22;7074;51.508;7.018;2023-03-01T08:34:39;2.40;99.90
13998;DHT22;7074;51.508;7.018;2023-03-01T08:37:08;2.50;99.90
13998;DHT22;7074;51.508;7.018;2023-03-01T08:39:38;2.60;99.90
13998;DHT22;7074;51.508;7.018;2023-03-01T08:42:05;2.50;99.90
13998;DHT22;7074;51.508;7.018;2023-03-01T08:44:33;2.60;99.90
13998;DHT22;7074;51.508;7.018;2023-03-01T08:47:00;2.60;99.90
13998;DHT22;7074;51.508;7.018;2023-03-01T08:49:29;2.70;99.90
13998;DHT22;7074;51.508;7.018;2023-03-01T08:51:58;2.90;99.90
13998;DHT22;7074;51.508;7.018;2023-03-01T08:54:27;3.00;99.90
13998;DHT22;7074;51.508;7.018;2023-03-01T08:56:55;3.00;99.90
13998;DHT22;7074;51.508;7.018;2023-03-01T08:59:25;3.10;99.90
13998;DHT22;7074;51.508;7.018;2023-03-01T09:01:52;3.20;99.90
13998;DHT22;7074;51.508;7.018;2023-03-01T09:04:20;3.30;99.90
13998;DHT22;7074;51.508;7.018;2023-03-01T09:06:47;3.30;99.90
13998;DHT22;7074;51.508;7.018;2023-03-01T09:09:16;3.40;99.90
13998;DHT22;7074;51.508;7.018;2023-03-01T09:11:48;3.40;99.90
13998;DHT22;7074;51.508;7.018;2023-03-01T09:14:16;3.60;99.90
13998;DHT22;7074;51.508;7.018;2023-03-01T09:16:43;3.80;99.90
13998;DHT22;7074;51.508;7.018;2023-03-01T09:19:11;3.90;99.90
13998;DHT22;7074;51.508;7.018;2023-03-01T09:21:39;4.00;99.90
13998;DHT22;7074;51.508;7.018;2023-03-01T09:24:08;4.10;99.90
13998;DHT22;7074;51.508;7.018;2023-03-01T09:26:39;4.20;99.90
13998;DHT22;7074;51.508;7.018;2023-03-01T09:29:08;4.30;99.90
13998;DHT22;7074;51.508;7.018;2023-03-01T09:31:36;4.40;99.90
13998;DHT22;7074;51.508;7.018;2023-03-01T09:34:03;4.50;99.90
13998;DHT22;7074;51.508;7.018;2023-03-01T09:36:30;4.60;99.90
13998;DHT22;7074;51.508;7.018;2023-03-01T09:38:59;4.70;99.90
13998;DHT22;7074;51.508;7.018;2023-03-01T09:41:42;4.80;99.90
13998;DHT22;7074;51.508;7.018;2023-03-01T09:44:20;4.90;99.90
13998;DHT22;7074;51.508;7.018;2023-03-01T09:46:51;5.00;99.90
13998;DHT22;7074;51.508;7.018;2023-03-01T09:49:22;5.10;99.90
13998;DHT22;7074;51.508;7.018;2023-03-01T09:51:57;5.20;99.90
13998;DHT22;7074;51.508;7.018;2023-03-01T09:54:26;5.40;99.90
13998;DHT22;7074;51.508;7.018;2023-03-01T09:57:05;5.20;99.90
13998;DHT22;7074;51.508;7.018;2023-03-01T09:59:45;5.50;99.90
13998;DHT22;7074;51.508;7.018;2023-03-01T10:02:24;5.50;99.90
13998;DHT22;7074;51.508;7.018;2023-03-01T10:04:57;5.40;99.00
13998;DHT22;7074;51.508;7.018;2023-03-01T10:07:31;5.40;99.10
13998;DHT22;7074;51.508;7.018;2023-03-01T10:10:00;5.30;99.20
13998;DHT22;7074;51.508;7.018;2023-03-01T10:12:35;5.30;99.30
13998;DHT22;7074;51.508;7.018;2023-03-01T10:15:08;5.60;99.80
13998;DHT22;7074;51.508;7.018;2023-03-01T10:17:41;5.80;99.20
13998;DHT22;7074;51.508;7.018;2023-03-01T10:20:18;6.00;98.10
13998;DHT22;7074;51.508;7.018;2023-03-01T10:22:45;6.00;97.50
13998;DHT22;7074;51.508;7.018;2023-03-01T10:25:20;6.00;96.90
13998;DHT22;7074;51.508;7.018;2023-03-01T10:27:52;5.90;96.60
13998;DHT22;7074;51.508;7.018;2023-03-01T10:30:32;6.00;96.10
13998;DHT22;7074;51.508;7.018;2023-03-01T10:33:02;5.90;96.20
13998;DHT22;7074;51.508;7.018;2023-03-01T10:35:33;5.90;96.20
13998;DHT22;7074;51.508;7.018;2023-03-01T10:38:06;6.00;96.40
13998;DHT22;7074;51.508;7.018;2023-03-01T10:40:35;5.90;95.50
13998;DHT22;7074;51.508;7.018;2023-03-01T10:43:04;6.20;95.90
13998;DHT22;7074;51.508;7.018;2023-03-01T10:45:37;6.40;95.10
13998;DHT22;7074;51.508;7.018;2023-03-01T10:48:11;6.50;94.70
13998;DHT22;7074;51.508;7.018;2023-03-01T10:50:40;6.60;94.70
13998;DHT22;7074;51.508;7.018;2023-03-01T10:53:20;6.70;93.80
13998;DHT22;7074;51.508;7.018;2023-03-01T10:55:57;6.60;93.00
13998;DHT22;7074;51.508;7.018;2023-03-01T10:58:26;6.60;93.20
13998;DHT22;7074;51.508;7.018;2023-03-01T11:00:55;6.70;93.60
13998;DHT22;7074;51.508;7.018;2023-03-01T11:03:24;6.90;93.40
13998;DHT22;7074;51.508;7.018;2023-03-01T11:06:01;7.00;92.50
13998;DHT22;7074;51.508;7.018;2023-03-01T11:08:40;6.80;91.70
13998;DHT22;7074;51.508;7.018;2023-03-01T11:11:26;6.80;91.50
13998;DHT22;7074;51.508;7.018;2023-03-01T11:13:58;6.80;91.80
13998;DHT22;7074;51.508;7.018;2023-03-01T11:16:33;7.00;92.10
13998;DHT22;7074;51.508;7.018;2023-03-01T11:19:15;7.10;91.60
13998;DHT22;7074;51.508;7.018;2023-03-01T11:21:47;7.10;90.90
13998;DHT22;7074;51.508;7.018;2023-03-01T11:24:19;7.00;90.80
13998;DHT22;7074;51.508;7.018;2023-03-01T11:26:52;7.20;91.10
13998;DHT22;7074;51.508;7.018;2023-03-01T11:29:27;7.40;90.70
13998;DHT22;7074;51.508;7.018;2023-03-01T12:17:41;7.90;84.90
13998;DHT22;7074;51.508;7.018;2023-03-01T12:20:22;7.90;85.60
13998;DHT22;7074;51.508;7.018;2023-03-01T12:45:35;8.10;80.10
13998;DHT22;7074;51.508;7.018;2023-03-01T12:48:36;8.20;80.20
13998;DHT22;7074;51.508;7.018;2023-03-01T12:51:13;8.20;79.20
13998;DHT22;7074;51.508;7.018;2023-03-01T12:53:45;8.30;79.10
13998;DHT22;7074;51.508;7.018;2023-03-01T12:56:17;8.20;78.10
13998;DHT22;7074;51.508;7.018;2023-03-01T12:59:01;8.20;78.40
13998;DHT22;7074;51.508;7.018;2023-03-01T13:01:45;8.40;77.40
13998;DHT22;7074;51.508;7.018;2023-03-01T13:05:00;8.50;77.60
13998;DHT22;7074;51.508;7.018;2023-03-01T13:07:58;8.60;77.40
13998;DHT22;7074;51.508;7.018;2023-03-01T13:10:40;8.60;77.00
13998;DHT22;7074;51.508;7.018;2023-03-01T13:13:21;8.50;76.80
13998;DHT22;7074;51.508;7.018;2023-03-01T13:16:38;8.30;77.70
13998;DHT22;7074;51.508;7.018;2023-03-01T13:19:21;8.50;79.40
13998;DHT22;7074;51.508;7.018;2023-03-01T13:21:51;8.30;78.30
13998;DHT22;7074;51.508;7.018;2023-03-01T13:24:35;8.30;79.60
13998;DHT22;7074;51.508;7.018;2023-03-01T13:27:26;8.50;80.40
13998;DHT22;7074;51.508;7.018;2023-03-01T13:29:59;8.40;79.90
13998;DHT22;7074;51.508;7.018;2023-03-01T13:32:49;8.60;79.50
13998;DHT22;7074;51.508;7.018;2023-03-01T13:35:42;8.80;78.70
13998;DHT22;7074;51.508;7.018;2023-03-01T13:41:53;8.90;76.20
13998;DHT22;7074;51.508;7.018;2023-03-01T13:44:53;8.90;74.60
13998;DHT22;7074;51.508;7.018;2023-03-01T13:48:08;9.00;74.00
13998;DHT22;7074;51.508;7.018;2023-03-01T13:50:51;8.90;74.90
13998;DHT22;7074;51.508;7.018;2023-03-01T13:53:41;8.80;75.20
13998;DHT22;7074;51.508;7.018;2023-03-01T13:56:25;9.00;75.80
13998;DHT22;7074;51.508;7.018;2023-03-01T13:58:59;9.00;75.50
13998;DHT22;7074;51.508;7.018;2023-03-01T14:01:58;9.00;74.00
13998;DHT22;7074;51.508;7.018;2023-03-01T14:04:43;9.20;72.30
13998;DHT22;7074;51.508;7.018;2023-03-01T14:11:27;9.00;72.60
13998;DHT22;7074;51.508;7.018;2023-03-01T14:15:39;9.10;73.30
13998;DHT22;7074;51.508;7.018;2023-03-01T14:20:46;9.00;73.20
13998;DHT22;7074;51.508;7.018;2023-03-01T14:23:42;8.90;76.10
13998;DHT22;7074;51.508;7.018;2023-03-01T14:26:28;9.00;76.10
13998;DHT22;7074;51.508;7.018;2023-03-01T14:28:57;9.10;76.50
13998;DHT22;7074;51.508;7.018;2023-03-01T14:31:38;9.00;77.00
13998;DHT22;7074;51.508;7.018;2023-03-01T14:34:24;8.90;78.30
13998;DHT22;7074;51.508;7.018;2023-03-01T14:37:25;9.00;78.90
13998;DHT22;7074;51.508;7.018;2023-03-01T14:40:24;9.00;79.50
13998;DHT22;7074;51.508;7.018;2023-03-01T14:44:27;8.90;78.90
13998;DHT22;7074;51.508;7.018;2023-03-01T14:46:19;8.90;78.60
13998;DHT22;7074;51.508;7.018;2023-03-01T14:48:50;9.00;79.50
13998;DHT22;7074;51.508;7.018;2023-03-01T14:51:18;9.00;79.10
13998;DHT22;7074;51.508;7.018;2023-03-01T14:53:45;9.00;79.50
13998;DHT22;7074;51.508;7.018;2023-03-01T14:56:17;9.00;79.00
13998;DHT22;7074;51.508;7.018;2023-03-01T14:58:45;8.90;78.30
13998;DHT22;7074;51.508;7.018;2023-03-01T15:01:16;8.90;78.50
13998;DHT22;7074;51.508;7.018;2023-03-01T15:03:48;8.80;78.20
13998;DHT22;7074;51.508;7.018;2023-03-01T15:06:20;8.80;79.30
13998;DHT22;7074;51.508;7.018;2023-03-01T15:08:51;8.80;78.20
13998;DHT22;7074;51.508;7.018;2023-03-01T15:11:23;8.70;76.40
13998;DHT22;7074;51.508;7.018;2023-03-01T15:13:51;8.70;76.10
13998;DHT22;7074;51.508;7.018;2023-03-01T15:16:23;8.60;76.20
13998;DHT22;7074;51.508;7.018;2023-03-01T15:18:53;8.30;76.70
13998;DHT22;7074;51.508;7.018;2023-03-01T15:21:23;8.30;78.00
13998;DHT22;7074;51.508;7.018;2023-03-01T15:23:53;8.40;78.90
13998;DHT22;7074;51.508;7.018;2023-03-01T15:26:24;8.60;79.10
13998;DHT22;7074;51.508;7.018;2023-03-01T15:28:56;8.60;78.40
13998;DHT22;7074;51.508;7.018;2023-03-01T15:31:26;8.60;78.70
13998;DHT22;7074;51.508;7.018;2023-03-01T15:34:20;8.70;78.00
13998;DHT22;7074;51.508;7.018;2023-03-01T15:36:51;8.70;77.60
13998;DHT22;7074;51.508;7.018;2023-03-01T15:39:43;8.60;76.90
13998;DHT22;7074;51.508;7.018;2023-03-01T15:42:38;8.60;76.80
13998;DHT22;7074;51.508;7.018;2023-03-01T15:45:21;8.50;76.40
13998;DHT22;7074;51.508;7.018;2023-03-01T15:48:26;8.40;75.30
13998;DHT22;7074;51.508;7.018;2023-03-01T15:51:11;8.30;75.20
13998;DHT22;7074;51.508;7.018;2023-03-01T15:54:01;8.30;76.20
13998;DHT22;7074;51.508;7.018;2023-03-01T15:56:36;8.40;76.70
13998;DHT22;7074;51.508;7.018;2023-03-01T15:59:14;8.40;76.70
13998;DHT22;7074;51.508;7.018;2023-03-01T16:02:25;8.40;77.30
13998;DHT22;7074;51.508;7.018;2023-03-01T16:04:59;8.30;77.40
13998;DHT22;7074;51.508;7.018;2023-03-01T16:10:59;8.10;77.20
13998;DHT22;7074;51.508;7.018;2023-03-01T16:14:02;8.10;78.00
13998;DHT22;7074;51.508;7.018;2023-03-01T16:23:39;8.00;78.90
13998;DHT22;7074;51.508;7.018;2023-03-01T16:26:13;7.90;79.60
13998;DHT22;7074;51.508;7.018;2023-03-01T16:47:19;7.60;84.00
13998;DHT22;7074;51.508;7.018;2023-03-01T17:17:05;7.50;87.40
13998;DHT22;7074;51.508;7.018;2023-03-01T17:19:33;7.40;87.70
13998;DHT22;7074;51.508;7.018;2023-03-01T17:22:01;7.30;87.90
13998;DHT22;7074;51.508;7.018;2023-03-01T17:24:32;7.30;89.20
13998;DHT22;7074;51.508;7.018;2023-03-01T17:26:59;7.30;89.10
13998;DHT22;7074;51.508;7.018;2023-03-01T17:30:10;7.30;89.00
13998;DHT22;7074;51.508;7.018;2023-03-01T17:39:34;7.10;90.10
13998;DHT22;7074;51.508;7.018;2023-03-01T17:42:03;7.10;90.60
13998;DHT22;7074;51.508;7.018;2023-03-01T17:44:31;7.10;90.70
13998;DHT22;7074;51.508;7.018;2023-03-01T17:47:01;7.10;90.80
13998;DHT22;7074;51.508;7.018;2023-03-01T17:49:28;7.10;90.80
13998;DHT22;7074;51.508;7.018;2023-03-01T17:51:56;7.00;90.80
13998;DHT22;7074;51.508;7.018;2023-03-01T17:54:23;6.90;90.90
13998;DHT22;7074;51.508;7.018;2023-03-01T17:56:51;6.80;90.90
13998;DHT22;7074;51.508;7.018;2023-03-01T17:59:18;6.80;91.50
13998;DHT22;7074;51.508;7.018;2023-03-01T18:01:46;6.90;91.50
13998;DHT22;7074;51.508;7.018;2023-03-01T18:04:14;6.80;91.60
13998;DHT22;7074;51.508;7.018;2023-03-01T18:06:43;6.90;91.80
13998;DHT22;7074;51.508;7.018;2023-03-01T18:09:10;6.90;91.60
13998;DHT22;7074;51.508;7.018;2023-03-01T18:11:39;6.80;91.50
13998;DHT22;7074;51.508;7.018;2023-03-01T18:14:07;6.80;91.50
13998;DHT22;7074;51.508;7.018;2023-03-01T18:16:35;6.80;91.70
13998;DHT22;7074;51.508;7.018;2023-03-01T18:19:04;6.80;91.80
13998;DHT22;7074;51.508;7.018;2023-03-01T18:21:33;6.70;91.90
13998;DHT22;7074;51.508;7.018;2023-03-01T18:24:00;6.80;92.10
13998;DHT22;7074;51.508;7.018;2023-03-01T18:26:27;6.70;92.20
13998;DHT22;7074;51.508;7.018;2023-03-01T18:28:55;6.70;92.40
13998;DHT22;7074;51.508;7.018;2023-03-01T18:31:26;6.60;92.50
13998;DHT22;7074;51.508;7.018;2023-03-01T18:33:57;6.60;93.20
13998;DHT22;7074;51.508;7.018;2023-03-01T18:36:27;6.50;93.10
13998;DHT22;7074;51.508;7.018;2023-03-01T18:38:56;6.40;93.60
13998;DHT22;7074;51.508;7.018;2023-03-01T18:41:25;6.50;93.60
13998;DHT22;7074;51.508;7.018;2023-03-01T18:43:53;6.50;93.70
13998;DHT22;7074;51.508;7.018;2023-03-01T18:46:20;6.40;93.70
13998;DHT22;7074;51.508;7.018;2023-03-01T18:48:48;6.20;93.90
13998;DHT22;7074;51.508;7.018;2023-03-01T18:51:17;6.30;94.20
13998;DHT22;7074;51.508;7.018;2023-03-01T18:53:44;6.30;94.30
13998;DHT22;7074;51.508;7.018;2023-03-01T18:56:13;6.20;94.50
13998;DHT22;7074;51.508;7.018;2023-03-01T18:58:42;6.30;94.50